sensor_id;sensor_type;location;lat;lon;timestamp;P1;durP1;ratioP1;P2;durP2;ratioP2
37409;SDS011;23275;48.914;12.566;2024-01-15T00:02:14;46.80;;;18.23;;
37409;SDS011;23275;48.914;12.566;2024-01-15T00:04:41;46.55;;;19.45;;
37409;SDS011;23275;48.914;12.566;2024-01-15T00:07:07;44.20;;;18.88;;
37409;SDS011;23275;48.914;12.566;2024-01-15T00:09:33;48.05;;;18.73;;
37409;SDS011;23275;48.914;12.566;2024-01-15T00:11:59;41.85;;;18.92;;
37409;SDS011;23275;48.914;12.566;2024-01-15T00:14:25;43.60;;;17.00;;
37409;SDS011;23275;48.914;12.566;2024-01-15T00:16:51;46.10;;;18.52;;
37409;SDS011;23275;48.914;12.566;2024-01-15T00:19:17;42.85;;;18.42;;
37409;SDS011;23275;48.914;12.566;2024-01-15T00:21:43;46.65;;;18.90;;
37409;SDS011;23275;48.914;12.566;2024-01-15T00:24:10;47.78;;;17.52;;
37409;SDS011;23275;48.914;12.566;2024-01-15T00:26:35;43.97;;;17.98;;
37409;SDS011;23275;48.914;12.566;2024-01-15T00:29:01;48.13;;;19.40;;
37409;SDS011;23275;48.914;12.566;2024-01-15T00:31:28;52.63;;;19.48;;
37409;SDS011;23275;48.914;12.566;2024-01-15T00:33:54;47.63;;;18.33;;
37409;SDS011;23275;48.914;12.566;2024-01-15T00:36:20;46.20;;;18.73;;
37409;SDS011;23275;48.914;12.566;2024-01-15T00:38:46;43.45;;;17.27;;
37409;SDS011;23275;48.914;12.566;2024-01-15T00:41:12;45.38;;;18.25;;
37409;SDS011;23275;48.914;12.566;2024-01-15T00:43:38;44.88;;;18.63;;
37409;SDS011;23275;48.914;12.566;2024-01-15T00:46:04;38.60;;;16.88;;
37409;SDS011;23275;48.914;12.566;2024-01-15T00:48:30;40.33;;;17.45;;
37409;SDS011;23275;48.914;12.566;2024-01-15T00:50:56;37.42;;;16.27;;
37409;SDS011;23275;48.914;12.566;2024-01-15T00:53:22;41.40;;;16.70;;
37409;SDS011;23275;48.914;12.566;2024-01-15T00:55:50;44.70;;;18.98;;
37409;SDS011;23275;48.914;12.566;2024-01-15T00:58:16;45.70;;;17.48;;
37409;SDS011;23275;48.914;12.566;2024-01-15T01:00:41;45.83;;;17.92;;
37409;SDS011;23275;48.914;12.566;2024-01-15T01:03:07;47.08;;;18.75;;
37409;SDS011;23275;48.914;12.566;2024-01-15T01:05:34;43.22;;;17.88;;
37409;SDS011;23275;48.914;12.566;2024-01-15T01:08:00;42.92;;;19.17;;
37409;SDS011;23275;48.914;12.566;2024-01-15T01:10:26;38.70;;;17.13;;
37409;SDS011;23275;48.914;12.566;2024-01-15T01:12:52;41.90;;;16.85;;
37409;SDS011;23275;48.914;12.566;2024-01-15T01:15:18;41.03;;;16.55;;
37409;SDS011;23275;48.914;12.566;2024-01-15T01:17:43;34.15;;;16.20;;
37409;SDS011;23275;48.914;12.566;2024-01-15T01:20:09;41.20;;;18.23;;
37409;SDS011;23275;48.914;12.566;2024-01-15T01:22:35;42.83;;;17.38;;
37409;SDS011;23275;48.914;12.566;2024-01-15T01:25:01;52.00;;;19.08;;
37409;SDS011;23275;48.914;12.566;2024-01-15T01:27:27;49.28;;;18.83;;
37409;SDS011;23275;48.914;12.566;2024-01-15T01:29:53;34.97;;;16.65;;
37409;SDS011;23275;48.914;12.566;2024-01-15T01:32:19;38.97;;;15.85;;
37409;SDS011;23275;48.914;12.566;2024-01-15T01:34:45;39.53;;;16.65;;
37409;SDS011;23275;48.914;12.566;2024-01-15T01:37:10;36.67;;;16.27;;
37409;SDS011;23275;48.914;12.566;2024-01-15T01:39:39;34.75;;;15.15;;
37409;SDS011;23275;48.914;12.566;2024-01-15T01:42:05;36.85;;;16.77;;
37409;SDS011;23275;48.914;12.566;2024-01-15T01:44:31;35.33;;;15.45;;
37409;SDS011;23275;48.914;12.566;2024-01-15T01:46:57;38.38;;;16.92;;
37409;SDS011;23275;48.914;12.566;2024-01-15T01:49:24;38.50;;;15.90;;
37409;SDS011;23275;48.914;12.566;2024-01-15T01:51:51;35.17;;;14.02;;
37409;SDS011;23275;48.914;12.566;2024-01-15T01:54:17;40.22;;;15.38;;
37409;SDS011;23275;48.914;12.566;2024-01-15T01:56:44;40.28;;;15.90;;
37409;SDS011;23275;48.914;12.566;2024-01-15T01:59:10;38.15;;;15.07;;
37409;SDS011;23275;48.914;12.566;2024-01-15T02:01:36;36.25;;;15.30;;
37409;SDS011;23275;48.914;12.566;2024-01-15T02:04:03;48.72;;;16.33;;
37409;SDS011;23275;48.914;12.566;2024-01-15T02:06:29;37.22;;;14.02;;
37409;SDS011;23275;48.914;12.566;2024-01-15T02:08:55;37.88;;;15.77;;
37409;SDS011;23275;48.914;12.566;2024-01-15T02:11:20;39.58;;;15.60;;
37409;SDS011;23275;48.914;12.566;2024-01-15T02:13:46;37.70;;;14.63;;
37409;SDS011;23275;48.914;12.566;2024-01-15T02:16:12;37.08;;;14.07;;
37409;SDS011;23275;48.914;12.566;2024-01-15T02:18:41;37.80;;;14.63;;
37409;SDS011;23275;48.914;12.566;2024-01-15T02:21:08;37.80;;;16.35;;
37409;SDS011;23275;48.914;12.566;2024-01-15T02:23:34;34.72;;;15.18;;
37409;SDS011;23275;48.914;12.566;2024-01-15T02:25:59;38.25;;;15.68;;
37409;SDS011;23275;48.914;12.566;2024-01-15T02:28:26;38.20;;;13.95;;
37409;SDS011;23275;48.914;12.566;2024-01-15T02:30:51;32.10;;;14.00;;
37409;SDS011;23275;48.914;12.566;2024-01-15T02:33:17;39.67;;;15.25;;
37409;SDS011;23275;48.914;12.566;2024-01-15T02:35:42;30.88;;;12.88;;
37409;SDS011;23275;48.914;12.566;2024-01-15T02:38:08;33.88;;;14.05;;
37409;SDS011;23275;48.914;12.566;2024-01-15T02:40:34;37.45;;;13.73;;
37409;SDS011;23275;48.914;12.566;2024-01-15T02:43:00;39.22;;;15.02;;
37409;SDS011;23275;48.914;12.566;2024-01-15T02:45:26;38.38;;;15.80;;
37409;SDS011;23275;48.914;12.566;2024-01-15T02:47:52;38.47;;;14.52;;
37409;SDS011;23275;48.914;12.566;2024-01-15T02:50:17;43.10;;;15.98;;
37409;SDS011;23275;48.914;12.566;2024-01-15T02:52:43;36.25;;;13.73;;
37409;SDS011;23275;48.914;12.566;2024-01-15T02:55:09;34.60;;;13.80;;
37409;SDS011;23275;48.914;12.566;2024-01-15T02:57:35;37.85;;;14.82;;
37409;SDS011;23275;48.914;12.566;2024-01-15T03:00:00;39.38;;;16.52;;
37409;SDS011;23275;48.914;12.566;2024-01-15T03:02:26;31.70;;;14.35;;
37409;SDS011;23275;48.914;12.566;2024-01-15T03:04:51;40.17;;;14.88;;
37409;SDS011;23275;48.914;12.566;2024-01-15T03:07:17;37.83;;;14.75;;
37409;SDS011;23275;48.914;12.566;2024-01-15T03:09:43;43.13;;;14.20;;
37409;SDS011;23275;48.914;12.566;2024-01-15T03:12:08;33.05;;;12.50;;
37409;SDS011;23275;48.914;12.566;2024-01-15T03:14:35;36.22;;;13.88;;
37409;SDS011;23275;48.914;12.566;2024-01-15T03:17:00;39.13;;;13.27;;
37409;SDS011;23275;48.914;12.566;2024-01-15T03:19:26;36.38;;;15.02;;
37409;SDS011;23275;48.914;12.566;2024-01-15T03:21:52;32.38;;;13.95;;
37409;SDS011;23275;48.914;12.566;2024-01-15T03:24:18;38.45;;;13.93;;
37409;SDS011;23275;48.914;12.566;2024-01-15T03:26:43;33.58;;;12.73;;
37409;SDS011;23275;48.914;12.566;2024-01-15T03:29:09;34.08;;;12.95;;
37409;SDS011;23275;48.914;12.566;2024-01-15T03:31:34;33.35;;;12.95;;
37409;SDS011;23275;48.914;12.566;2024-01-15T03:34:00;35.00;;;12.45;;
37409;SDS011;23275;48.914;12.566;2024-01-15T03:36:25;41.08;;;12.85;;
37409;SDS011;23275;48.914;12.566;2024-01-15T03:38:51;32.45;;;12.40;;
37409;SDS011;23275;48.914;12.566;2024-01-15T03:41:17;35.13;;;12.38;;
37409;SDS011;23275;48.914;12.566;2024-01-15T03:43:42;30.55;;;10.80;;
37409;SDS011;23275;48.914;12.566;2024-01-15T03:46:08;36.67;;;13.38;;
37409;SDS011;23275;48.914;12.566;2024-01-15T03:48:33;30.60;;;12.65;;
37409;SDS011;23275;48.914;12.566;2024-01-15T03:50:59;31.25;;;12.60;;
37409;SDS011;23275;48.914;12.566;2024-01-15T03:53:24;32.33;;;11.35;;
37409;SDS011;23275;48.914;12.566;2024-01-15T03:55:50;34.83;;;12.27;;
37409;SDS011;23275;48.914;12.566;2024-01-15T03:58:16;31.63;;;12.40;;
37409;SDS011;23275;48.914;12.566;2024-01-15T04:00:42;32.30;;;11.52;;
37409;SDS011;23275;48.914;12.566;2024-01-15T04:03:07;33.80;;;11.32;;
37409;SDS011;23275;48.914;12.566;2024-01-15T04:05:33;32.22;;;12.13;;
37409;SDS011;23275;48.914;12.566;2024-01-15T04:07:58;27.85;;;12.00;;
37409;SDS011;23275;48.914;12.566;2024-01-15T04:10:24;33.00;;;10.90;;
37409;SDS011;23275;48.914;12.566;2024-01-15T04:12:50;31.52;;;11.60;;
37409;SDS011;23275;48.914;12.566;2024-01-15T04:15:16;27.85;;;10.60;;
37409;SDS011;23275;48.914;12.566;2024-01-15T04:17:41;29.73;;;11.55;;
37409;SDS011;23275;48.914;12.566;2024-01-15T04:20:07;28.88;;;11.55;;
37409;SDS011;23275;48.914;12.566;2024-01-15T04:22:34;29.27;;;10.48;;
37409;SDS011;23275;48.914;12.566;2024-01-15T04:25:00;36.50;;;12.73;;
37409;SDS011;23275;48.914;12.566;2024-01-15T04:27:26;29.55;;;11.85;;
37409;SDS011;23275;48.914;12.566;2024-01-15T04:29:52;34.75;;;11.20;;
37409;SDS011;23275;48.914;12.566;2024-01-15T04:32:18;32.78;;;11.40;;
37409;SDS011;23275;48.914;12.566;2024-01-15T04:34:43;27.77;;;10.40;;
37409;SDS011;23275;48.914;12.566;2024-01-15T04:37:09;28.38;;;10.68;;
37409;SDS011;23275;48.914;12.566;2024-01-15T04:39:35;30.58;;;10.07;;
37409;SDS011;23275;48.914;12.566;2024-01-15T04:42:01;27.17;;;10.10;;
37409;SDS011;23275;48.914;12.566;2024-01-15T04:44:26;30.58;;;10.13;;
37409;SDS011;23275;48.914;12.566;2024-01-15T04:46:52;32.55;;;11.23;;
37409;SDS011;23275;48.914;12.566;2024-01-15T04:49:17;27.35;;;10.43;;
37409;SDS011;23275;48.914;12.566;2024-01-15T04:51:43;25.27;;;10.43;;
37409;SDS011;23275;48.914;12.566;2024-01-15T04:54:08;22.30;;;9.20;;
37409;SDS011;23275;48.914;12.566;2024-01-15T04:56:34;29.08;;;10.55;;
37409;SDS011;23275;48.914;12.566;2024-01-15T04:58:59;27.17;;;9.80;;
37409;SDS011;23275;48.914;12.566;2024-01-15T05:01:25;29.70;;;9.50;;
37409;SDS011;23275;48.914;12.566;2024-01-15T05:03:54;26.63;;;10.70;;
37409;SDS011;23275;48.914;12.566;2024-01-15T05:06:20;25.40;;;10.05;;
37409;SDS011;23275;48.914;12.566;2024-01-15T05:08:45;23.77;;;10.13;;
37409;SDS011;23275;48.914;12.566;2024-01-15T05:11:11;26.13;;;9.07;;
37409;SDS011;23275;48.914;12.566;2024-01-15T05:13:36;24.85;;;10.05;;
37409;SDS011;23275;48.914;12.566;2024-01-15T05:16:02;22.00;;;9.35;;
37409;SDS011;23275;48.914;12.566;2024-01-15T05:18:28;23.50;;;9.75;;
37409;SDS011;23275;48.914;12.566;2024-01-15T05:20:53;21.80;;;8.52;;
37409;SDS011;23275;48.914;12.566;2024-01-15T05:23:19;24.58;;;9.48;;
37409;SDS011;23275;48.914;12.566;2024-01-15T05:25:44;26.85;;;10.00;;
37409;SDS011;23275;48.914;12.566;2024-01-15T05:28:10;25.05;;;9.15;;
37409;SDS011;23275;48.914;12.566;2024-01-15T05:30:35;22.60;;;9.32;;
37409;SDS011;23275;48.914;12.566;2024-01-15T05:33:01;25.08;;;9.30;;
37409;SDS011;23275;48.914;12.566;2024-01-15T05:35:27;25.58;;;9.55;;
37409;SDS011;23275;48.914;12.566;2024-01-15T05:37:53;23.60;;;9.57;;
37409;SDS011;23275;48.914;12.566;2024-01-15T05:40:18;24.75;;;8.88;;
37409;SDS011;23275;48.914;12.566;2024-01-15T05:42:44;22.58;;;9.10;;
37409;SDS011;23275;48.914;12.566;2024-01-15T05:45:09;21.70;;;9.98;;
37409;SDS011;23275;48.914;12.566;2024-01-15T05:47:35;22.40;;;9.27;;
37409;SDS011;23275;48.914;12.566;2024-01-15T05:50:01;26.45;;;11.38;;
37409;SDS011;23275;48.914;12.566;2024-01-15T05:52:27;27.85;;;11.20;;
37409;SDS011;23275;48.914;12.566;2024-01-15T05:54:53;24.65;;;9.90;;
37409;SDS011;23275;48.914;12.566;2024-01-15T05:57:18;24.98;;;9.55;;
37409;SDS011;23275;48.914;12.566;2024-01-15T05:59:44;26.00;;;11.43;;
37409;SDS011;23275;48.914;12.566;2024-01-15T06:02:10;22.13;;;9.95;;
37409;SDS011;23275;48.914;12.566;2024-01-15T06:04:36;29.35;;;9.50;;
37409;SDS011;23275;48.914;12.566;2024-01-15T06:07:01;25.73;;;9.85;;
37409;SDS011;23275;48.914;12.566;2024-01-15T06:09:27;23.90;;;9.55;;
37409;SDS011;23275;48.914;12.566;2024-01-15T06:11:53;25.67;;;8.50;;
37409;SDS011;23275;48.914;12.566;2024-01-15T06:14:19;22.67;;;9.63;;
37409;SDS011;23275;48.914;12.566;2024-01-15T06:16:44;22.83;;;8.82;;
37409;SDS011;23275;48.914;12.566;2024-01-15T06:19:10;25.15;;;9.88;;
37409;SDS011;23275;48.914;12.566;2024-01-15T06:21:36;24.00;;;10.13;;
37409;SDS011;23275;48.914;12.566;2024-01-15T06:24:01;25.02;;;9.77;;
37409;SDS011;23275;48.914;12.566;2024-01-15T06:26:27;24.55;;;11.35;;
37409;SDS011;23275;48.914;12.566;2024-01-15T06:28:52;27.05;;;11.07;;
37409;SDS011;23275;48.914;12.566;2024-01-15T06:31:18;25.83;;;11.18;;
37409;SDS011;23275;48.914;12.566;2024-01-15T06:33:43;29.10;;;13.15;;
37409;SDS011;23275;48.914;12.566;2024-01-15T06:36:12;29.67;;;13.20;;
37409;SDS011;23275;48.914;12.566;2024-01-15T06:38:37;29.42;;;11.88;;
37409;SDS011;23275;48.914;12.566;2024-01-15T06:41:03;22.35;;;10.90;;
37409;SDS011;23275;48.914;12.566;2024-01-15T06:43:28;29.08;;;11.02;;
37409;SDS011;23275;48.914;12.566;2024-01-15T06:45:54;23.80;;;11.00;;
37409;SDS011;23275;48.914;12.566;2024-01-15T06:48:20;28.67;;;11.70;;
37409;SDS011;23275;48.914;12.566;2024-01-15T06:50:45;29.73;;;13.15;;
37409;SDS011;23275;48.914;12.566;2024-01-15T06:53:11;35.15;;;18.70;;
37409;SDS011;23275;48.914;12.566;2024-01-15T06:55:37;24.60;;;11.40;;
37409;SDS011;23275;48.914;12.566;2024-01-15T06:58:03;23.70;;;10.23;;
37409;SDS011;23275;48.914;12.566;2024-01-15T07:00:29;23.33;;;9.43;;
37409;SDS011;23275;48.914;12.566;2024-01-15T07:02:55;18.00;;;8.88;;
37409;SDS011;23275;48.914;12.566;2024-01-15T07:05:21;20.52;;;8.20;;
37409;SDS011;23275;48.914;12.566;2024-01-15T07:07:48;19.48;;;7.88;;
37409;SDS011;23275;48.914;12.566;2024-01-15T07:10:13;19.73;;;8.35;;
37409;SDS011;23275;48.914;12.566;2024-01-15T07:12:41;24.45;;;9.05;;
37409;SDS011;23275;48.914;12.566;2024-01-15T07:15:07;21.52;;;9.85;;
37409;SDS011;23275;48.914;12.566;2024-01-15T07:17:33;38.55;;;19.30;;
37409;SDS011;23275;48.914;12.566;2024-01-15T07:19:59;27.92;;;13.20;;
37409;SDS011;23275;48.914;12.566;2024-01-15T07:22:25;26.60;;;11.07;;
37409;SDS011;23275;48.914;12.566;2024-01-15T07:24:50;20.17;;;8.88;;
37409;SDS011;23275;48.914;12.566;2024-01-15T07:27:16;17.75;;;8.45;;
37409;SDS011;23275;48.914;12.566;2024-01-15T07:29:41;32.25;;;13.50;;
37409;SDS011;23275;48.914;12.566;2024-01-15T07:32:08;31.45;;;14.00;;
37409;SDS011;23275;48.914;12.566;2024-01-15T07:34:33;36.72;;;13.30;;
37409;SDS011;23275;48.914;12.566;2024-01-15T07:36:59;31.55;;;13.13;;
37409;SDS011;23275;48.914;12.566;2024-01-15T07:39:25;27.30;;;12.30;;
37409;SDS011;23275;48.914;12.566;2024-01-15T07:41:51;21.40;;;9.27;;
37409;SDS011;23275;48.914;12.566;2024-01-15T07:44:17;20.75;;;9.25;;
37409;SDS011;23275;48.914;12.566;2024-01-15T07:46:48;23.15;;;11.43;;
37409;SDS011;23275;48.914;12.566;2024-01-15T07:49:14;26.38;;;11.30;;
37409;SDS011;23275;48.914;12.566;2024-01-15T07:51:40;23.98;;;10.45;;
37409;SDS011;23275;48.914;12.566;2024-01-15T07:54:06;26.25;;;11.88;;
37409;SDS011;23275;48.914;12.566;2024-01-15T07:56:32;17.00;;;8.30;;
37409;SDS011;23275;48.914;12.566;2024-01-15T07:58:58;21.58;;;9.05;;
37409;SDS011;23275;48.914;12.566;2024-01-15T08:01:23;24.77;;;9.90;;
37409;SDS011;23275;48.914;12.566;2024-01-15T08:03:49;20.50;;;7.28;;
37409;SDS011;23275;48.914;12.566;2024-01-15T08:06:15;18.45;;;8.57;;
37409;SDS011;23275;48.914;12.566;2024-01-15T08:08:40;23.00;;;8.27;;
37409;SDS011;23275;48.914;12.566;2024-01-15T08:11:06;20.45;;;9.45;;
37409;SDS011;23275;48.914;12.566;2024-01-15T08:13:31;25.30;;;11.27;;
37409;SDS011;23275;48.914;12.566;2024-01-15T08:15:57;21.55;;;8.05;;
37409;SDS011;23275;48.914;12.566;2024-01-15T08:18:23;25.48;;;9.15;;
37409;SDS011;23275;48.914;12.566;2024-01-15T08:20:48;18.95;;;7.43;;
37409;SDS011;23275;48.914;12.566;2024-01-15T08:23:16;27.27;;;12.30;;
37409;SDS011;23275;48.914;12.566;2024-01-15T08:25:41;17.48;;;8.55;;
37409;SDS011;23275;48.914;12.566;2024-01-15T08:28:07;18.10;;;9.25;;
37409;SDS011;23275;48.914;12.566;2024-01-15T08:30:33;29.42;;;13.68;;
37409;SDS011;23275;48.914;12.566;2024-01-15T08:32:59;26.75;;;11.55;;
37409;SDS011;23275;48.914;12.566;2024-01-15T08:35:25;19.80;;;9.00;;
37409;SDS011;23275;48.914;12.566;2024-01-15T08:37:51;16.00;;;5.70;;
37409;SDS011;23275;48.914;12.566;2024-01-15T08:40:17;13.35;;;6.80;;
37409;SDS011;23275;48.914;12.566;2024-01-15T08:42:43;15.32;;;6.40;;
37409;SDS011;23275;48.914;12.566;2024-01-15T08:45:09;15.45;;;5.82;;
37409;SDS011;23275;48.914;12.566;2024-01-15T08:47:34;12.73;;;6.10;;
37409;SDS011;23275;48.914;12.566;2024-01-15T08:50:00;11.27;;;5.35;;
37409;SDS011;23275;48.914;12.566;2024-01-15T08:52:27;14.40;;;6.32;;
37409;SDS011;23275;48.914;12.566;2024-01-15T08:54:52;12.95;;;5.72;;
37409;SDS011;23275;48.914;12.566;2024-01-15T08:57:18;11.63;;;5.13;;
37409;SDS011;23275;48.914;12.566;2024-01-15T08:59:43;11.15;;;5.20;;
37409;SDS011;23275;48.914;12.566;2024-01-15T09:02:10;13.13;;;5.13;;
37409;SDS011;23275;48.914;12.566;2024-01-15T09:04:35;16.05;;;5.95;;
37409;SDS011;23275;48.914;12.566;2024-01-15T09:07:01;14.55;;;5.80;;
37409;SDS011;23275;48.914;12.566;2024-01-15T09:09:27;14.98;;;5.78;;
37409;SDS011;23275;48.914;12.566;2024-01-15T09:11:52;13.63;;;4.82;;
37409;SDS011;23275;48.914;12.566;2024-01-15T09:14:18;11.57;;;4.82;;
37409;SDS011;23275;48.914;12.566;2024-01-15T09:16:43;14.85;;;6.25;;
37409;SDS011;23275;48.914;12.566;2024-01-15T09:19:09;10.27;;;4.53;;
37409;SDS011;23275;48.914;12.566;2024-01-15T09:21:35;17.75;;;4.80;;
37409;SDS011;23275;48.914;12.566;2024-01-15T09:24:03;15.23;;;4.68;;
37409;SDS011;23275;48.914;12.566;2024-01-15T09:26:28;13.82;;;5.93;;
37409;SDS011;23275;48.914;12.566;2024-01-15T09:28:54;12.73;;;5.85;;
37409;SDS011;23275;48.914;12.566;2024-01-15T09:31:19;12.10;;;4.80;;
37409;SDS011;23275;48.914;12.566;2024-01-15T09:33:46;10.80;;;4.65;;
37409;SDS011;23275;48.914;12.566;2024-01-15T09:36:11;12.35;;;4.88;;
37409;SDS011;23275;48.914;12.566;2024-01-15T09:38:37;9.73;;;4.40;;
37409;SDS011;23275;48.914;12.566;2024-01-15T09:41:05;11.90;;;5.47;;
37409;SDS011;23275;48.914;12.566;2024-01-15T09:43:30;14.07;;;5.72;;
37409;SDS011;23275;48.914;12.566;2024-01-15T09:45:56;12.63;;;5.47;;
37409;SDS011;23275;48.914;12.566;2024-01-15T09:48:22;13.27;;;5.13;;
37409;SDS011;23275;48.914;12.566;2024-01-15T09:50:48;12.13;;;4.80;;
37409;SDS011;23275;48.914;12.566;2024-01-15T09:53:15;17.65;;;6.82;;
37409;SDS011;23275;48.914;12.566;2024-01-15T09:55:41;11.88;;;5.80;;
37409;SDS011;23275;48.914;12.566;2024-01-15T09:58:06;11.80;;;5.28;;
37409;SDS011;23275;48.914;12.566;2024-01-15T10:00:32;12.57;;;4.68;;
37409;SDS011;23275;48.914;12.566;2024-01-15T10:03:01;12.45;;;5.15;;
37409;SDS011;23275;48.914;12.566;2024-01-15T10:05:28;12.52;;;4.93;;
37409;SDS011;23275;48.914;12.566;2024-01-15T10:07:54;9.98;;;4.32;;
37409;SDS011;23275;48.914;12.566;2024-01-15T10:10:22;11.40;;;5.28;;
37409;SDS011;23275;48.914;12.566;2024-01-15T10:12:49;9.95;;;4.72;;
37409;SDS011;23275;48.914;12.566;2024-01-15T10:15:15;9.60;;;4.10;;
37409;SDS011;23275;48.914;12.566;2024-01-15T10:17:42;10.30;;;4.18;;
37409;SDS011;23275;48.914;12.566;2024-01-15T10:20:11;11.23;;;4.70;;
37409;SDS011;23275;48.914;12.566;2024-01-15T10:22:43;9.93;;;4.30;;
37409;SDS011;23275;48.914;12.566;2024-01-15T10:25:11;11.73;;;4.40;;
37409;SDS011;23275;48.914;12.566;2024-01-15T10:27:39;11.40;;;4.70;;
37409;SDS011;23275;48.914;12.566;2024-01-15T10:30:06;8.68;;;3.95;;
37409;SDS011;23275;48.914;12.566;2024-01-15T10:32:33;12.25;;;5.43;;
37409;SDS011;23275;48.914;12.566;2024-01-15T10:34:58;11.73;;;4.55;;
37409;SDS011;23275;48.914;12.566;2024-01-15T10:37:24;10.95;;;4.28;;
37409;SDS011;23275;48.914;12.566;2024-01-15T10:39:50;11.23;;;4.47;;
37409;SDS011;23275;48.914;12.566;2024-01-15T10:42:16;15.40;;;5.63;;
37409;SDS011;23275;48.914;12.566;2024-01-15T10:44:43;11.05;;;5.57;;
37409;SDS011;23275;48.914;12.566;2024-01-15T10:47:09;17.50;;;3.92;;
37409;SDS011;23275;48.914;12.566;2024-01-15T10:49:35;9.60;;;4.95;;
37409;SDS011;23275;48.914;12.566;2024-01-15T10:52:02;9.18;;;4.22;;
37409;SDS011;23275;48.914;12.566;2024-01-15T10:54:28;9.77;;;4.97;;
37409;SDS011;23275;48.914;12.566;2024-01-15T10:56:54;11.52;;;5.40;;
37409;SDS011;23275;48.914;12.566;2024-01-15T10:59:21;13.50;;;5.18;;
37409;SDS011;23275;48.914;12.566;2024-01-15T11:01:50;11.77;;;4.93;;
37409;SDS011;23275;48.914;12.566;2024-01-15T11:04:20;17.27;;;6.65;;
37409;SDS011;23275;48.914;12.566;2024-01-15T11:06:47;18.60;;;6.88;;
37409;SDS011;23275;48.914;12.566;2024-01-15T11:09:15;16.92;;;7.45;;
37409;SDS011;23275;48.914;12.566;2024-01-15T11:11:45;13.38;;;5.40;;
37409;SDS011;23275;48.914;12.566;2024-01-15T11:14:33;14.85;;;5.10;;
37409;SDS011;23275;48.914;12.566;2024-01-15T11:17:03;11.85;;;4.95;;
37409;SDS011;23275;48.914;12.566;2024-01-15T11:19:36;16.48;;;7.15;;
37409;SDS011;23275;48.914;12.566;2024-01-15T11:22:10;23.13;;;9.00;;
37409;SDS011;23275;48.914;12.566;2024-01-15T11:24:54;16.63;;;7.45;;
37409;SDS011;23275;48.914;12.566;2024-01-15T11:27:19;12.77;;;5.55;;
37409;SDS011;23275;48.914;12.566;2024-01-15T11:30:17;20.98;;;9.30;;
37409;SDS011;23275;48.914;12.566;2024-01-15T11:32:45;13.85;;;6.53;;
37409;SDS011;23275;48.914;12.566;2024-01-15T11:35:11;11.23;;;4.22;;
37409;SDS011;23275;48.914;12.566;2024-01-15T11:40:49;15.52;;;7.38;;
37409;SDS011;23275;48.914;12.566;2024-01-15T11:43:10;17.30;;;8.10;;
37409;SDS011;23275;48.914;12.566;2024-01-15T11:45:38;9.40;;;3.47;;
37409;SDS011;23275;48.914;12.566;2024-01-15T11:48:09;7.78;;;4.25;;
37409;SDS011;23275;48.914;12.566;2024-01-15T11:50:45;8.45;;;3.40;;
37409;SDS011;23275;48.914;12.566;2024-01-15T11:53:27;11.40;;;4.53;;
37409;SDS011;23275;48.914;12.566;2024-01-15T11:55:59;14.57;;;4.60;;
37409;SDS011;23275;48.914;12.566;2024-01-15T11:58:27;13.27;;;5.63;;
37409;SDS011;23275;48.914;12.566;2024-01-15T12:00:53;12.82;;;5.05;;
37409;SDS011;23275;48.914;12.566;2024-01-15T12:03:23;13.30;;;5.43;;
37409;SDS011;23275;48.914;12.566;2024-01-15T12:05:49;16.13;;;6.07;;
37409;SDS011;23275;48.914;12.566;2024-01-15T12:08:20;7.10;;;2.67;;
37409;SDS011;23275;48.914;12.566;2024-01-15T12:10:49;11.88;;;4.22;;
37409;SDS011;23275;48.914;12.566;2024-01-15T12:13:15;9.77;;;4.43;;
37409;SDS011;23275;48.914;12.566;2024-01-15T12:15:42;8.82;;;3.55;;
37409;SDS011;23275;48.914;12.566;2024-01-15T12:18:09;14.13;;;5.97;;
37409;SDS011;23275;48.914;12.566;2024-01-15T12:20:36;11.82;;;3.75;;
37409;SDS011;23275;48.914;12.566;2024-01-15T12:23:02;14.07;;;4.93;;
37409;SDS011;23275;48.914;12.566;2024-01-15T12:25:29;8.43;;;3.05;;
37409;SDS011;23275;48.914;12.566;2024-01-15T12:27:55;8.15;;;3.55;;
37409;SDS011;23275;48.914;12.566;2024-01-15T12:30:21;10.40;;;4.43;;
37409;SDS011;23275;48.914;12.566;2024-01-15T12:32:47;8.38;;;2.95;;
37409;SDS011;23275;48.914;12.566;2024-01-15T12:35:13;13.68;;;5.25;;
37409;SDS011;23275;48.914;12.566;2024-01-15T12:37:40;6.75;;;3.10;;
37409;SDS011;23275;48.914;12.566;2024-01-15T12:40:06;7.65;;;3.05;;
37409;SDS011;23275;48.914;12.566;2024-01-15T12:42:37;6.45;;;3.20;;
37409;SDS011;23275;48.914;12.566;2024-01-15T12:45:06;9.70;;;3.30;;
37409;SDS011;23275;48.914;12.566;2024-01-15T12:47:35;9.93;;;3.15;;
37409;SDS011;23275;48.914;12.566;2024-01-15T12:50:01;7.32;;;2.92;;
37409;SDS011;23275;48.914;12.566;2024-01-15T12:52:28;7.32;;;3.03;;
37409;SDS011;23275;48.914;12.566;2024-01-15T12:54:54;10.60;;;2.72;;
37409;SDS011;23275;48.914;12.566;2024-01-15T12:57:19;5.93;;;2.92;;
37409;SDS011;23275;48.914;12.566;2024-01-15T12:59:45;9.02;;;2.97;;
37409;SDS011;23275;48.914;12.566;2024-01-15T13:02:12;6.15;;;2.80;;
37409;SDS011;23275;48.914;12.566;2024-01-15T13:04:38;7.57;;;2.67;;
37409;SDS011;23275;48.914;12.566;2024-01-15T13:07:04;6.68;;;2.50;;
37409;SDS011;23275;48.914;12.566;2024-01-15T13:09:31;6.65;;;2.45;;
37409;SDS011;23275;48.914;12.566;2024-01-15T13:11:58;6.82;;;2.50;;
37409;SDS011;23275;48.914;12.566;2024-01-15T13:14:24;6.25;;;2.38;;
37409;SDS011;23275;48.914;12.566;2024-01-15T13:16:50;5.85;;;2.30;;
37409;SDS011;23275;48.914;12.566;2024-01-15T13:19:16;6.10;;;2.50;;
37409;SDS011;23275;48.914;12.566;2024-01-15T13:21:41;7.30;;;2.20;;
37409;SDS011;23275;48.914;12.566;2024-01-15T13:24:07;5.88;;;2.28;;
37409;SDS011;23275;48.914;12.566;2024-01-15T13:26:34;5.53;;;2.50;;
37409;SDS011;23275;48.914;12.566;2024-01-15T13:29:01;6.68;;;2.42;;
37409;SDS011;23275;48.914;12.566;2024-01-15T13:31:28;7.97;;;2.95;;
37409;SDS011;23275;48.914;12.566;2024-01-15T13:33:55;6.40;;;2.83;;
37409;SDS011;23275;48.914;12.566;2024-01-15T13:36:21;5.30;;;2.35;;
37409;SDS011;23275;48.914;12.566;2024-01-15T13:38:48;5.18;;;2.63;;
37409;SDS011;23275;48.914;12.566;2024-01-15T13:41:17;5.70;;;2.70;;
37409;SDS011;23275;48.914;12.566;2024-01-15T13:43:52;5.95;;;2.53;;
37409;SDS011;23275;48.914;12.566;2024-01-15T13:46:19;6.90;;;2.80;;
37409;SDS011;23275;48.914;12.566;2024-01-15T13:48:46;8.20;;;3.58;;
37409;SDS011;23275;48.914;12.566;2024-01-15T13:51:12;5.85;;;2.88;;
37409;SDS011;23275;48.914;12.566;2024-01-15T13:53:38;8.30;;;2.92;;
37409;SDS011;23275;48.914;12.566;2024-01-15T13:56:05;4.78;;;2.20;;
37409;SDS011;23275;48.914;12.566;2024-01-15T13:58:31;6.22;;;2.38;;
37409;SDS011;23275;48.914;12.566;2024-01-15T14:00:58;7.80;;;2.78;;
37409;SDS011;23275;48.914;12.566;2024-01-15T14:03:23;6.82;;;2.58;;
37409;SDS011;23275;48.914;12.566;2024-01-15T14:05:50;7.13;;;2.83;;
37409;SDS011;23275;48.914;12.566;2024-01-15T14:08:16;6.40;;;3.13;;
37409;SDS011;23275;48.914;12.566;2024-01-15T14:10:42;7.30;;;3.33;;
37409;SDS011;23275;48.914;12.566;2024-01-15T14:13:07;7.55;;;2.67;;
37409;SDS011;23275;48.914;12.566;2024-01-15T14:15:33;5.82;;;3.00;;
37409;SDS011;23275;48.914;12.566;2024-01-15T14:17:59;7.93;;;3.70;;